Time;durP1;ratioP1;P1;durP2;ratioP2;P2;SDS_P1;SDS_P2;PMS_P1;PMS_P2;Temp;Humidity;BMP_temperature;BMP_pressure;BME280_temperature;BME280_humidity;BME280_pressure;Samples;Min_cycle;Max_cycle;Signal;HPM_P1;HPM_P2
2021/12/28 00:01:10;;;;;;;0.30;0.30;;;;;;;;;;5023783;28;20029;-83
2021/12/28 00:03:37;;;;;;;0.20;0.20;;;;;;;;;;5044109;28;20051;-82
2021/12/28 00:06:04;;;;;;;0.30;0.30;;;;;;;;;;5042363;28;20120;-81
2021/12/28 00:08:30;;;;;;;0.20;0.20;;;;;;;;;;5043303;28;20048;-81
2021/12/28 00:10:56;;;;;;;0.30;0.30;;;;;;;;;;5040043;28;20033;-81
2021/12/28 00:13:23;;;;;;;0.20;0.20;;;;;;;;;;5036085;28;20385;-82
2021/12/28 00:18:15;;;;;;;0.30;0.30;;;;;;;;;;5041783;28;20500;-82
2021/12/28 00:20:43;;;;;;;0.30;0.30;;;;;;;;;;5050685;28;20268;-82
2021/12/28 00:23:13;;;;;;;0.20;0.20;;;;;;;;;;5041820;28;20053;-82
2021/12/28 00:25:40;;;;;;;0.30;0.30;;;;;;;;;;5043582;28;20029;-82
2021/12/28 00:28:06;;;;;;;0.25;0.25;;;;;;;;;;5040819;28;20029;-82
2021/12/28 00:30:32;;;;;;;0.30;0.30;;;;;;;;;;5041571;28;20112;-83
2021/12/28 00:32:58;;;;;;;0.20;0.20;;;;;;;;;;5035795;28;20159;-82
2021/12/28 00:35:25;;;;;;;0.20;0.20;;;;;;;;;;5040782;28;20040;-81
2021/12/28 00:37:52;;;;;;;0.20;0.20;;;;;;;;;;5023603;28;20021;-82
2021/12/28 00:40:18;;;;;;;0.20;0.20;;;;;;;;;;5038992;28;20033;-81
2021/12/28 00:42:45;;;;;;;0.20;0.20;;;;;;;;;;5040631;28;20037;-81
2021/12/28 00:45:12;;;;;;;0.20;0.20;;;;;;;;;;5040726;28;20061;-81
2021/12/28 00:47:38;;;;;;;0.20;0.20;;;;;;;;;;5040856;28;20086;-81
2021/12/28 00:50:04;;;;;;;0.30;0.30;;;;;;;;;;5040324;28;20116;-81
2021/12/28 00:52:31;;;;;;;0.20;0.20;;;;;;;;;;5041713;28;20120;-83
2021/12/28 00:54:57;;;;;;;0.20;0.20;;;;;;;;;;5039981;28;20037;-82
2021/12/28 00:57:23;;;;;;;0.20;0.20;;;;;;;;;;5039497;28;20040;-83
2021/12/28 00:59:49;;;;;;;0.30;0.30;;;;;;;;;;5040123;28;20028;-83
2021/12/28 01:02:15;;;;;;;0.30;0.30;;;;;;;;;;5041640;28;20033;-83
2021/12/28 01:04:41;;;;;;;0.20;0.20;;;;;;;;;;5041359;28;20029;-83
2021/12/28 01:07:07;;;;;;;0.23;0.23;;;;;;;;;;5039847;28;20542;-83
2021/12/28 01:09:33;;;;;;;0.20;0.20;;;;;;;;;;5041728;28;20515;-83
2021/12/28 01:12:00;;;;;;;0.20;0.20;;;;;;;;;;5042356;28;20025;-82
2021/12/28 01:14:26;;;;;;;;;;;;;;;;;;5040697;28;20083;-85
2021/12/28 01:16:52;;;;;;;0.20;0.20;;;;;;;;;;5040733;28;19920;-87
2021/12/28 01:19:18;;;;;;;0.20;0.20;;;;;;;;;;5039174;28;20024;-85
2021/12/28 01:21:44;;;;;;;0.20;0.20;;;;;;;;;;5039463;28;20033;-85
2021/12/28 01:24:11;;;;;;;0.20;0.20;;;;;;;;;;5040989;28;20033;-86
2021/12/28 01:26:37;;;;;;;0.20;0.20;;;;;;;;;;5041568;28;20033;-86
2021/12/28 01:29:03;;;;;;;0.20;0.20;;;;;;;;;;5041181;28;20037;-87
2021/12/28 01:31:29;;;;;;;0.20;0.20;;;;;;;;;;5037384;28;20053;-87
2021/12/28 01:33:55;;;;;;;0.30;0.30;;;;;;;;;;5040038;28;20068;-83
2021/12/28 01:36:21;;;;;;;0.20;0.20;;;;;;;;;;5040051;28;20276;-84
2021/12/28 01:38:47;;;;;;;0.20;0.20;;;;;;;;;;5037363;28;20037;-83
2021/12/28 01:41:14;;;;;;;0.20;0.20;;;;;;;;;;5039254;28;20047;-83
2021/12/28 01:43:42;;;;;;;0.20;0.20;;;;;;;;;;5038712;28;20055;-83
2021/12/28 01:46:09;;;;;;;0.20;0.20;;;;;;;;;;5038320;28;20484;-82
2021/12/28 01:48:36;;;;;;;0.20;0.20;;;;;;;;;;5036276;28;20028;-81
2021/12/28 01:51:06;;;;;;;0.20;0.20;;;;;;;;;;5038864;28;20102;-82
2021/12/28 01:53:32;;;;;;;0.20;0.20;;;;;;;;;;5036027;28;20048;-83
2021/12/28 01:55:59;;;;;;;0.20;0.20;;;;;;;;;;5024183;28;20040;-82
2021/12/28 01:58:26;;;;;;;0.20;0.20;;;;;;;;;;5037877;28;20500;-82
2021/12/28 02:00:53;;;;;;;0.20;0.20;;;;;;;;;;5036653;28;20029;-82
2021/12/28 02:03:20;;;;;;;0.20;0.20;;;;;;;;;;5039637;28;20102;-83
2021/12/28 02:05:46;;;;;;;0.28;0.28;;;;;;;;;;5038790;28;20108;-82
2021/12/28 02:08:15;;;;;;;0.30;0.30;;;;;;;;;;5038919;28;20033;-82
2021/12/28 02:10:42;;;;;;;0.20;0.20;;;;;;;;;;5039663;28;20039;-82
2021/12/28 02:13:09;;;;;;;0.20;0.20;;;;;;;;;;5037885;28;20045;-82
2021/12/28 02:15:35;;;;;;;0.20;0.20;;;;;;;;;;5038922;28;20029;-83
2021/12/28 02:18:02;;;;;;;0.20;0.20;;;;;;;;;;5039729;28;20029;-82
2021/12/28 02:20:28;;;;;;;0.10;0.10;;;;;;;;;;5038522;28;20065;-82
2021/12/28 02:22:55;;;;;;;0.20;0.20;;;;;;;;;;5039584;28;20036;-82
2021/12/28 02:25:21;;;;;;;0.10;0.10;;;;;;;;;;5038662;28;20029;-82
2021/12/28 02:27:47;;;;;;;0.20;0.20;;;;;;;;;;5037528;28;20531;-82
2021/12/28 02:30:16;;;;;;;0.10;0.10;;;;;;;;;;5038735;28;20025;-82
2021/12/28 02:32:43;;;;;;;0.10;0.10;;;;;;;;;;5020109;28;20420;-82
2021/12/28 02:35:09;;;;;;;;;;;;;;;;;;5040856;28;21026;-82
2021/12/28 02:37:35;;;;;;;0.20;0.20;;;;;;;;;;5037796;28;20048;-83
2021/12/28 02:40:01;;;;;;;0.20;0.20;;;;;;;;;;5038242;28;20483;-82
2021/12/28 02:42:27;;;;;;;0.20;0.20;;;;;;;;;;5039685;28;20071;-82
2021/12/28 02:44:57;;;;;;;0.20;0.20;;;;;;;;;;5037078;28;20396;-84
2021/12/28 02:47:23;;;;;;;0.10;0.10;;;;;;;;;;5038503;28;20029;-83
2021/12/28 02:49:50;;;;;;;0.10;0.10;;;;;;;;;;5027300;28;20032;-84
2021/12/28 02:52:16;;;;;;;0.20;0.20;;;;;;;;;;5041580;28;20037;-84
2021/12/28 02:54:42;;;;;;;0.20;0.20;;;;;;;;;;5041952;28;20403;-83
2021/12/28 02:57:08;;;;;;;0.20;0.20;;;;;;;;;;5038488;28;20541;-85
2021/12/28 02:59:34;;;;;;;0.20;0.20;;;;;;;;;;5040470;28;20107;-85
2021/12/28 03:02:00;;;;;;;0.20;0.20;;;;;;;;;;5043707;28;20053;-85
2021/12/28 03:04:27;;;;;;;0.10;0.10;;;;;;;;;;5038290;28;20271;-85
2021/12/28 03:06:53;;;;;;;0.10;0.10;;;;;;;;;;5042831;28;20139;-85
2021/12/28 03:09:21;;;;;;;0.10;0.10;;;;;;;;;;5026736;28;20489;-85
2021/12/28 03:11:47;;;;;;;0.20;0.20;;;;;;;;;;5043325;28;20652;-85
2021/12/28 03:14:13;;;;;;;0.10;0.10;;;;;;;;;;5029796;28;20044;-85
2021/12/28 03:16:39;;;;;;;0.20;0.20;;;;;;;;;;5044912;28;20102;-84
2021/12/28 03:19:05;;;;;;;0.10;0.10;;;;;;;;;;5039433;28;20076;-84
2021/12/28 03:21:35;;;;;;;0.20;0.20;;;;;;;;;;5024157;28;20025;-84
2021/12/28 03:24:02;;;;;;;0.10;0.10;;;;;;;;;;5041419;28;20283;-85
2021/12/28 03:26:28;;;;;;;0.20;0.20;;;;;;;;;;5040408;28;20037;-82
2021/12/28 03:28:54;;;;;;;0.20;0.20;;;;;;;;;;5042459;28;20112;-82
2021/12/28 03:31:21;;;;;;;0.13;0.13;;;;;;;;;;5041469;28;20025;-82
2021/12/28 03:33:49;;;;;;;0.20;0.20;;;;;;;;;;5035986;28;20041;-83
2021/12/28 03:36:16;;;;;;;0.20;0.20;;;;;;;;;;5038545;28;20112;-83
2021/12/28 03:38:42;;;;;;;0.20;0.20;;;;;;;;;;5045565;28;20471;-82
2021/12/28 03:41:09;;;;;;;0.13;0.13;;;;;;;;;;5043342;28;20033;-83
2021/12/28 03:43:36;;;;;;;0.20;0.20;;;;;;;;;;5043164;28;20043;-84
2021/12/28 03:46:02;;;;;;;0.20;0.20;;;;;;;;;;5040940;28;20474;-84
2021/12/28 03:48:28;;;;;;;0.20;0.20;;;;;;;;;;5040628;28;20579;-84
2021/12/28 03:50:54;;;;;;;0.20;0.20;;;;;;;;;;5041464;28;20303;-84
2021/12/28 03:53:20;;;;;;;0.20;0.20;;;;;;;;;;5041979;28;20036;-85
2021/12/28 03:55:46;;;;;;;0.20;0.20;;;;;;;;;;5041062;28;20029;-84
2021/12/28 03:58:12;;;;;;;0.20;0.20;;;;;;;;;;5040231;28;20291;-84
2021/12/28 04:00:41;;;;;;;0.20;0.20;;;;;;;;;;5040716;28;21169;-83
2021/12/28 04:03:07;;;;;;;0.20;0.20;;;;;;;;;;5032091;28;20029;-84
2021/12/28 04:05:34;;;;;;;0.30;0.30;;;;;;;;;;5040915;28;20035;-84
2021/12/28 04:08:00;;;;;;;0.20;0.20;;;;;;;;;;5042497;28;20025;-85
2021/12/28 04:10:33;;;;;;;0.20;0.20;;;;;;;;;;5039047;28;20061;-85
2021/12/28 04:12:59;;;;;;;0.20;0.20;;;;;;;;;;5039910;28;20071;-85
2021/12/28 04:15:25;;;;;;;0.20;0.20;;;;;;;;;;5025761;28;20028;-84
2021/12/28 04:17:51;;;;;;;0.20;0.20;;;;;;;;;;5041613;28;20029;-84
2021/12/28 04:20:18;;;;;;;0.20;0.20;;;;;;;;;;5041798;28;20040;-83
2021/12/28 04:22:45;;;;;;;0.20;0.20;;;;;;;;;;5026188;28;20432;-85
2021/12/28 04:25:12;;;;;;;0.20;0.20;;;;;;;;;;5032395;28;20038;-84
2021/12/28 04:27:38;;;;;;;0.20;0.20;;;;;;;;;;5040166;28;20040;-86
2021/12/28 04:30:06;;;;;;;0.20;0.20;;;;;;;;;;5040926;28;20864;-86
2021/12/28 04:32:32;;;;;;;0.20;0.20;;;;;;;;;;5041624;28;20040;-86
2021/12/28 04:34:58;;;;;;;0.20;0.20;;;;;;;;;;5041759;28;20850;-86
2021/12/28 04:37:24;;;;;;;0.20;0.20;;;;;;;;;;5040477;28;20120;-86
2021/12/28 04:39:50;;;;;;;0.20;0.20;;;;;;;;;;5024054;28;20474;-86
2021/12/28 04:42:16;;;;;;;0.20;0.20;;;;;;;;;;5039916;28;20079;-85
2021/12/28 04:44:43;;;;;;;0.20;0.20;;;;;;;;;;5042344;28;20720;-86
2021/12/28 04:47:09;;;;;;;0.20;0.20;;;;;;;;;;5040709;28;20033;-85
2021/12/28 04:49:35;;;;;;;0.20;0.20;;;;;;;;;;5038601;28;20108;-86
2021/12/28 04:52:02;;;;;;;0.20;0.20;;;;;;;;;;5032888;28;20047;-85
2021/12/28 04:54:28;;;;;;;0.20;0.20;;;;;;;;;;5040016;28;20033;-85
2021/12/28 04:56:55;;;;;;;0.20;0.20;;;;;;;;;;5043835;28;20033;-85
2021/12/28 04:59:21;;;;;;;0.20;0.20;;;;;;;;;;5039761;28;20037;-85
2021/12/28 05:01:47;;;;;;;0.20;0.20;;;;;;;;;;5030869;28;20036;-84
2021/12/28 05:04:13;;;;;;;0.20;0.20;;;;;;;;;;5039711;28;20037;-86
2021/12/28 05:06:40;;;;;;;0.20;0.20;;;;;;;;;;5039537;28;21129;-88
2021/12/28 05:09:08;;;;;;;0.20;0.20;;;;;;;;;;5040889;28;20037;-85
2021/12/28 05:11:34;;;;;;;0.20;0.20;;;;;;;;;;5041239;28;20028;-87
2021/12/28 05:14:01;;;;;;;0.20;0.20;;;;;;;;;;5023549;28;20045;-88
2021/12/28 05:16:33;;;;;;;0.20;0.20;;;;;;;;;;5032234;28;20133;-85
2021/12/28 05:18:59;;;;;;;0.20;0.20;;;;;;;;;;5033004;28;20086;-83
2021/12/28 05:21:25;;;;;;;0.20;0.20;;;;;;;;;;5038468;28;20029;-85
2021/12/28 05:23:51;;;;;;;0.20;0.20;;;;;;;;;;5039259;28;20120;-84
2021/12/28 05:26:17;;;;;;;0.20;0.20;;;;;;;;;;5040338;28;20318;-84
2021/12/28 05:28:43;;;;;;;0.28;0.28;;;;;;;;;;5023018;28;20506;-83
2021/12/28 05:31:10;;;;;;;0.20;0.20;;;;;;;;;;5034634;28;20156;-84
2021/12/28 05:33:36;;;;;;;0.20;0.20;;;;;;;;;;5040873;28;20032;-83
2021/12/28 05:36:04;;;;;;;0.20;0.20;;;;;;;;;;5038988;28;20032;-83
2021/12/28 05:38:30;;;;;;;0.20;0.20;;;;;;;;;;5038982;28;20522;-85
2021/12/28 05:40:56;;;;;;;0.20;0.20;;;;;;;;;;5034228;28;20036;-83
2021/12/28 05:43:22;;;;;;;0.30;0.30;;;;;;;;;;5039481;28;20039;-82
2021/12/28 05:45:48;;;;;;;0.30;0.30;;;;;;;;;;5043779;28;20755;-82
2021/12/28 05:48:14;;;;;;;0.30;0.30;;;;;;;;;;5039646;28;20029;-83
2021/12/28 05:50:40;;;;;;;0.22;0.22;;;;;;;;;;5039625;28;20036;-85
2021/12/28 05:53:06;;;;;;;0.30;0.30;;;;;;;;;;5043239;28;20809;-88
2021/12/28 05:55:32;;;;;;;0.30;0.30;;;;;;;;;;5042987;28;20122;-87
2021/12/28 05:57:59;;;;;;;0.28;0.28;;;;;;;;;;5038171;28;20029;-85
2021/12/28 06:00:28;;;;;;;0.20;0.20;;;;;;;;;;5024199;28;20037;-86
2021/12/28 06:02:54;;;;;;;0.30;0.30;;;;;;;;;;5038767;28;20029;-86
2021/12/28 06:05:20;;;;;;;0.20;0.20;;;;;;;;;;5041591;28;20056;-88
2021/12/28 06:07:46;;;;;;;0.23;0.23;;;;;;;;;;5042267;28;20059;-93
2021/12/28 06:10:14;;;;;;;0.20;0.20;;;;;;;;;;5046881;28;20025;-94
2021/12/28 06:12:40;;;;;;;0.20;0.20;;;;;;;;;;5039009;28;20040;-81
2021/12/28 06:15:06;;;;;;;0.20;0.20;;;;;;;;;;5039111;28;20029;-80
2021/12/28 06:17:32;;;;;;;0.20;0.20;;;;;;;;;;5038868;28;20056;-82
2021/12/28 06:19:58;;;;;;;0.20;0.20;;;;;;;;;;5041015;28;20067;-92
2021/12/28 06:22:24;;;;;;;0.20;0.20;;;;;;;;;;5046282;28;20532;-91
2021/12/28 06:24:51;;;;;;;0.20;0.20;;;;;;;;;;5044698;28;20492;-91
2021/12/28 06:27:18;;;;;;;0.30;0.30;;;;;;;;;;5040212;28;20094;-84
2021/12/28 06:29:44;;;;;;;0.30;0.30;;;;;;;;;;5038047;28;20032;-84
2021/12/28 06:32:10;;;;;;;0.20;0.20;;;;;;;;;;5038639;28;20482;-84
2021/12/28 06:34:36;;;;;;;0.20;0.20;;;;;;;;;;5043289;28;20040;-86
2021/12/28 06:37:03;;;;;;;0.20;0.20;;;;;;;;;;5043081;28;20021;-84
2021/12/28 06:39:29;;;;;;;0.30;0.30;;;;;;;;;;5042945;28;20024;-85
2021/12/28 06:41:55;;;;;;;0.28;0.28;;;;;;;;;;5047031;28;20052;-85
2021/12/28 06:44:21;;;;;;;0.30;0.30;;;;;;;;;;5033178;28;20641;-84
2021/12/28 06:46:47;;;;;;;0.20;0.20;;;;;;;;;;5045537;28;20072;-85
2021/12/28 06:49:14;;;;;;;0.20;0.20;;;;;;;;;;5045203;28;20067;-85
2021/12/28 06:51:40;;;;;;;0.30;0.30;;;;;;;;;;5042043;28;20083;-85
2021/12/28 06:54:06;;;;;;;0.30;0.30;;;;;;;;;;5046388;28;20044;-85
2021/12/28 06:56:33;;;;;;;0.28;0.28;;;;;;;;;;5037095;28;20025;-88
2021/12/28 06:58:59;;;;;;;0.20;0.20;;;;;;;;;;5047000;28;20032;-85
2021/12/28 07:01:25;;;;;;;0.20;0.20;;;;;;;;;;5026985;28;20405;-84
2021/12/28 07:03:51;;;;;;;0.20;0.20;;;;;;;;;;5042514;28;20045;-86
2021/12/28 07:06:18;;;;;;;0.20;0.20;;;;;;;;;;5043241;28;20025;-85
2021/12/28 07:08:44;;;;;;;0.20;0.20;;;;;;;;;;5045894;28;20035;-86
2021/12/28 07:11:10;;;;;;;0.20;0.20;;;;;;;;;;5042935;28;20045;-85
2021/12/28 07:13:36;;;;;;;0.20;0.20;;;;;;;;;;5043100;28;20052;-85
2021/12/28 07:16:02;;;;;;;0.30;0.30;;;;;;;;;;5042565;28;20267;-86
2021/12/28 07:18:28;;;;;;;0.30;0.30;;;;;;;;;;5042662;28;20284;-89
2021/12/28 07:20:54;;;;;;;0.30;0.30;;;;;;;;;;5047452;28;20317;-89
2021/12/28 07:23:20;;;;;;;0.30;0.30;;;;;;;;;;5030353;28;20496;-88
2021/12/28 07:25:46;;;;;;;0.23;0.23;;;;;;;;;;5043178;28;20867;-87
2021/12/28 07:28:13;;;;;;;0.30;0.30;;;;;;;;;;5037010;28;20048;-86
2021/12/28 07:30:39;;;;;;;0.20;0.20;;;;;;;;;;5036722;28;20311;-86
2021/12/28 07:33:05;;;;;;;0.20;0.20;;;;;;;;;;5026823;28;20041;-85
2021/12/28 07:35:31;;;;;;;0.20;0.20;;;;;;;;;;5044472;28;20029;-85
2021/12/28 07:37:57;;;;;;;0.20;0.20;;;;;;;;;;5044523;28;20029;-85
2021/12/28 07:40:23;;;;;;;0.20;0.20;;;;;;;;;;5044838;28;20021;-85
2021/12/28 07:42:50;;;;;;;0.20;0.20;;;;;;;;;;5041206;28;20029;-85
2021/12/28 07:45:16;;;;;;;0.20;0.20;;;;;;;;;;5040140;28;20963;-85
2021/12/28 07:47:42;;;;;;;0.20;0.20;;;;;;;;;;5045350;28;20029;-84
2021/12/28 07:50:10;;;;;;;0.20;0.20;;;;;;;;;;5038586;28;20071;-85
2021/12/28 07:52:37;;;;;;;0.20;0.20;;;;;;;;;;5040865;28;20048;-78
2021/12/28 07:55:04;;;;;;;0.20;0.20;;;;;;;;;;5044288;28;20099;-78
2021/12/28 07:57:31;;;;;;;0.20;0.20;;;;;;;;;;5044285;28;20593;-78
2021/12/28 07:59:57;;;;;;;0.30;0.30;;;;;;;;;;5044790;28;20027;-79
2021/12/28 08:02:23;;;;;;;0.20;0.20;;;;;;;;;;5035607;28;20523;-91
2021/12/28 08:04:49;;;;;;;0.20;0.20;;;;;;;;;;5040150;28;20450;-81
2021/12/28 08:07:15;;;;;;;0.20;0.20;;;;;;;;;;5044033;28;20495;-81
2021/12/28 08:09:41;;;;;;;0.20;0.20;;;;;;;;;;5039574;28;20029;-80
2021/12/28 08:12:08;;;;;;;0.20;0.20;;;;;;;;;;5029074;28;20709;-85
2021/12/28 08:14:34;;;;;;;0.20;0.20;;;;;;;;;;5044493;28;20086;-85
2021/12/28 08:17:00;;;;;;;0.20;0.20;;;;;;;;;;5027200;28;20033;-85
2021/12/28 08:19:26;;;;;;;0.20;0.20;;;;;;;;;;5033718;28;20037;-85
2021/12/28 08:21:52;;;;;;;0.20;0.20;;;;;;;;;;5038555;28;20032;-85
2021/12/28 08:24:18;;;;;;;0.20;0.20;;;;;;;;;;5043044;28;20040;-83
2021/12/28 08:26:44;;;;;;;0.20;0.20;;;;;;;;;;5029840;28;20040;-85
2021/12/28 08:29:10;;;;;;;0.20;0.20;;;;;;;;;;5042309;28;20033;-87
2021/12/28 08:31:36;;;;;;;0.20;0.20;;;;;;;;;;5043410;28;20104;-83
2021/12/28 08:34:03;;;;;;;0.20;0.20;;;;;;;;;;5035240;28;20041;-84
2021/12/28 08:36:29;;;;;;;0.20;0.20;;;;;;;;;;5042375;28;20029;-83
2021/12/28 08:38:55;;;;;;;0.10;0.10;;;;;;;;;;5026044;28;20399;-91
2021/12/28 08:41:22;;;;;;;0.10;0.10;;;;;;;;;;5029858;28;20030;-91
2021/12/28 08:43:48;;;;;;;0.10;0.10;;;;;;;;;;5048240;28;20067;-91
2021/12/28 08:46:14;;;;;;;0.00;0.00;;;;;;;;;;5047447;28;20034;-91
2021/12/28 08:48:40;;;;;;;405.45;368.40;;;;;;;;;;5042267;28;20268;-91
2021/12/28 08:51:07;;;;;;;0.10;0.10;;;;;;;;;;5032528;28;20086;-91
2021/12/28 08:53:33;;;;;;;0.10;0.10;;;;;;;;;;5032223;28;20043;-90
2021/12/28 08:55:59;;;;;;;0.10;0.10;;;;;;;;;;5044113;28;20123;-91
2021/12/28 08:58:25;;;;;;;0.10;0.10;;;;;;;;;;5045743;28;20033;-91
2021/12/28 09:00:52;;;;;;;0.00;0.00;;;;;;;;;;5047684;28;20047;-92
2021/12/28 09:03:19;;;;;;;0.00;0.00;;;;;;;;;;5046497;28;20341;-92
2021/12/28 09:05:45;;;;;;;0.00;0.00;;;;;;;;;;5048237;28;20033;-92
2021/12/28 09:08:13;;;;;;;0.20;0.20;;;;;;;;;;5049106;28;20033;-92
2021/12/28 09:10:40;;;;;;;0.10;0.10;;;;;;;;;;5041698;28;20024;-91
2021/12/28 09:13:07;;;;;;;1999.90;999.90;;;;;;;;;;5041404;28;20033;-92
2021/12/28 09:15:35;;;;;;;1999.90;999.90;;;;;;;;;;5048414;28;20055;-92
2021/12/28 09:18:01;;;;;;;9.43;9.00;;;;;;;;;;5026407;28;20595;-91
2021/12/28 09:20:27;;;;;;;127.70;116.57;;;;;;;;;;5029015;28;20045;-92
2021/12/28 09:22:56;;;;;;;0.00;0.00;;;;;;;;;;5048110;28;20110;-92
2021/12/28 09:25:22;;;;;;;0.00;0.00;;;;;;;;;;5036670;28;20091;-92
2021/12/28 09:27:48;;;;;;;0.00;0.00;;;;;;;;;;5041737;28;20037;-92
2021/12/28 09:30:14;;;;;;;0.00;0.00;;;;;;;;;;5023883;28;20054;-91
2021/12/28 09:32:41;;;;;;;0.20;0.20;;;;;;;;;;5032652;28;20275;-92
2021/12/28 09:35:07;;;;;;;0.00;0.00;;;;;;;;;;5031879;28;20037;-91
2021/12/28 09:37:33;;;;;;;0.00;0.00;;;;;;;;;;5046618;28;20029;-91
2021/12/28 09:40:00;;;;;;;0.30;0.30;;;;;;;;;;5045491;28;20052;-92
2021/12/28 09:42:27;;;;;;;0.10;0.10;;;;;;;;;;5046998;28;20346;-92
2021/12/28 09:44:53;;;;;;;0.22;0.22;;;;;;;;;;5046850;28;20925;-92
2021/12/28 09:47:19;;;;;;;0.10;0.10;;;;;;;;;;5045434;28;20029;-91
2021/12/28 09:49:46;;;;;;;0.10;0.10;;;;;;;;;;5047708;28;20376;-91
2021/12/28 09:52:12;;;;;;;0.20;0.20;;;;;;;;;;5037604;28;20489;-92
2021/12/28 09:54:39;;;;;;;0.10;0.10;;;;;;;;;;5040770;28;20040;-92
2021/12/28 09:57:05;;;;;;;0.00;0.00;;;;;;;;;;5046718;28;20083;-92
2021/12/28 09:59:31;;;;;;;0.20;0.20;;;;;;;;;;5028713;28;20411;-91
2021/12/28 10:01:59;;;;;;;0.00;0.00;;;;;;;;;;5029856;28;20029;-91
2021/12/28 10:04:25;;;;;;;0.95;0.88;;;;;;;;;;5047087;28;21206;-90
2021/12/28 10:06:51;;;;;;;0.40;0.37;;;;;;;;;;5040501;28;20029;-91
2021/12/28 10:09:19;;;;;;;0.00;0.00;;;;;;;;;;5035769;28;20315;-91
2021/12/28 10:11:49;;;;;;;1.05;1.00;;;;;;;;;;5030996;28;20033;-91
2021/12/28 10:14:20;;;;;;;0.55;0.55;;;;;;;;;;5044526;28;20515;-91
2021/12/28 10:17:01;;;;;;;0.20;0.20;;;;;;;;;;5031685;28;20030;-91
2021/12/28 10:19:36;;;;;;;0.20;0.20;;;;;;;;;;5030714;28;20056;-90
2021/12/28 10:22:21;;;;;;;1.02;0.52;;;;;;;;;;5034616;28;20030;-91
2021/12/28 10:24:48;;;;;;;0.10;0.10;;;;;;;;;;5030282;28;20030;-91
2021/12/28 10:27:17;;;;;;;0.00;0.00;;;;;;;;;;5035711;28;20032;-90
2021/12/28 10:29:43;;;;;;;0.00;0.00;;;;;;;;;;5046133;28;20174;-92
2021/12/28 10:32:26;;;;;;;1.23;1.20;;;;;;;;;;5046770;28;20150;-91
2021/12/28 10:34:56;;;;;;;0.40;0.40;;;;;;;;;;5045898;28;20637;-91
2021/12/28 10:37:27;;;;;;;0.00;0.00;;;;;;;;;;5046134;28;20400;-91
2021/12/28 10:39:56;;;;;;;0.05;0.05;;;;;;;;;;5046549;28;20089;-90
2021/12/28 10:42:38;;;;;;;2.55;0.57;;;;;;;;;;5042166;28;20025;-91
2021/12/28 10:45:05;;;;;;;0.10;0.10;;;;;;;;;;5038085;28;20581;-80
2021/12/28 10:47:31;;;;;;;1.55;1.00;;;;;;;;;;5040064;28;20029;-80
2021/12/28 10:50:00;;;;;;;0.53;0.53;;;;;;;;;;5041603;28;20254;-80
2021/12/28 10:52:33;;;;;;;0.45;0.45;;;;;;;;;;5020052;28;20040;-80
2021/12/28 10:55:20;;;;;;;0.45;0.43;;;;;;;;;;5036950;28;20385;-79
2021/12/28 10:57:46;;;;;;;0.05;0.05;;;;;;;;;;5040856;28;20118;-79
2021/12/28 11:00:25;;;;;;;0.27;0.27;;;;;;;;;;5041662;28;20033;-80
2021/12/28 11:02:51;;;;;;;0.30;0.30;;;;;;;;;;5038239;28;20898;-79
2021/12/28 11:05:33;;;;;;;0.38;0.38;;;;;;;;;;5040336;28;20053;-80
2021/12/28 11:08:01;;;;;;;0.00;0.00;;;;;;;;;;5027515;28;20030;-81
2021/12/28 11:10:27;;;;;;;0.38;0.38;;;;;;;;;;5029012;28;20181;-79
2021/12/28 11:12:57;;;;;;;0.10;0.10;;;;;;;;;;5032806;28;20062;-79
2021/12/28 11:15:24;;;;;;;0.10;0.10;;;;;;;;;;5024339;28;20033;-80
2021/12/28 11:17:50;;;;;;;0.17;0.17;;;;;;;;;;5021971;28;20033;-80
2021/12/28 11:20:16;;;;;;;0.20;0.20;;;;;;;;;;5022555;28;20029;-79
2021/12/28 11:23:02;;;;;;;0.10;0.10;;;;;;;;;;5033093;28;20276;-82
2021/12/28 11:25:30;;;;;;;0.10;0.10;;;;;;;;;;5044525;28;20025;-78
2021/12/28 11:28:13;;;;;;;1.58;1.38;;;;;;;;;;5041137;28;20036;-79
2021/12/28 11:30:40;;;;;;;0.20;0.20;;;;;;;;;;5041535;28;20123;-81
2021/12/28 11:33:07;;;;;;;;;;;;;;;;;;5041790;28;20159;-80
2021/12/28 11:35:33;;;;;;;;;;;;;;;;;;5027158;28;20413;-79
2021/12/28 11:37:59;;;;;;;0.00;0.00;;;;;;;;;;5041235;28;19912;-80
2021/12/28 11:40:25;;;;;;;0.17;0.17;;;;;;;;;;5042301;28;20028;-82
2021/12/28 11:42:51;;;;;;;0.47;0.47;;;;;;;;;;5041104;28;20033;-82
2021/12/28 11:45:20;;;;;;;0.97;0.77;;;;;;;;;;5040882;28;20048;-82
2021/12/28 11:47:46;;;;;;;0.70;0.70;;;;;;;;;;5043015;28;20025;-81
2021/12/28 11:50:14;;;;;;;2.40;2.20;;;;;;;;;;5043900;28;20036;-83
2021/12/28 11:52:40;;;;;;;1.13;0.70;;;;;;;;;;5043477;28;20582;-82
2021/12/28 11:55:09;;;;;;;0.63;0.63;;;;;;;;;;5043771;28;20041;-83
2021/12/28 11:57:35;;;;;;;2.22;0.40;;;;;;;;;;5041655;28;20488;-85
2021/12/28 12:00:06;;;;;;;0.10;0.10;;;;;;;;;;5042009;28;20024;-85
2021/12/28 12:02:42;;;;;;;2.58;2.38;;;;;;;;;;5041001;28;20040;-84
2021/12/28 12:05:13;;;;;;;0.98;0.98;;;;;;;;;;5043205;28;20029;-81
2021/12/28 12:07:39;;;;;;;4.57;1.60;;;;;;;;;;5043172;28;20052;-82
2021/12/28 12:10:19;;;;;;;0.63;0.63;;;;;;;;;;5042105;28;20024;-81
2021/12/28 12:12:50;;;;;;;2.72;1.95;;;;;;;;;;5037744;28;20096;-82
2021/12/28 12:15:18;;;;;;;0.00;0.00;;;;;;;;;;5036246;28;20029;-82
2021/12/28 12:17:45;;;;;;;0.10;0.10;;;;;;;;;;5043607;28;20033;-81
2021/12/28 12:20:20;;;;;;;1.30;0.25;;;;;;;;;;5023179;28;20029;-81
2021/12/28 12:22:49;;;;;;;3.20;0.85;;;;;;;;;;5040481;28;20033;-82
2021/12/28 12:25:21;;;;;;;1.83;0.40;;;;;;;;;;5043348;28;20078;-82
2021/12/28 12:27:50;;;;;;;0.52;0.52;;;;;;;;;;5040677;28;20036;-82
2021/12/28 12:30:18;;;;;;;0.45;0.43;;;;;;;;;;5039606;28;20056;-81
2021/12/28 12:32:57;;;;;;;0.10;0.10;;;;;;;;;;5041347;28;20508;-82
2021/12/28 12:35:30;;;;;;;1.30;1.30;;;;;;;;;;5042858;28;20676;-82
2021/12/28 12:37:57;;;;;;;0.40;0.40;;;;;;;;;;5042416;28;20060;-82
2021/12/28 12:40:23;;;;;;;5.45;0.47;;;;;;;;;;5040743;28;20091;-81
2021/12/28 12:43:08;;;;;;;0.10;0.10;;;;;;;;;;5026103;28;20504;-81
2021/12/28 12:45:52;;;;;;;0.10;0.10;;;;;;;;;;5041287;28;20124;-81
2021/12/28 12:48:35;;;;;;;0.10;0.10;;;;;;;;;;5040018;28;20025;-81
2021/12/28 12:51:22;;;;;;;0.10;0.10;;;;;;;;;;5042165;28;20029;-81
2021/12/28 12:54:12;;;;;;;0.20;0.20;;;;;;;;;;5041703;28;20033;-81
2021/12/28 12:56:41;;;;;;;0.20;0.20;;;;;;;;;;5041414;28;20060;-81
2021/12/28 12:59:21;;;;;;;0.20;0.20;;;;;;;;;;5038863;28;20029;-82
2021/12/28 13:01:47;;;;;;;0.20;0.20;;;;;;;;;;5039598;28;20032;-81
2021/12/28 13:04:26;;;;;;;1.20;1.10;;;;;;;;;;5039332;28;20031;-81
2021/12/28 13:07:04;;;;;;;0.00;0.00;;;;;;;;;;5039062;28;20056;-81
2021/12/28 13:09:31;;;;;;;0.38;0.38;;;;;;;;;;5038034;28;20030;-81
2021/12/28 13:11:59;;;;;;;0.80;0.80;;;;;;;;;;5043660;28;20033;-81
2021/12/28 13:14:25;;;;;;;1.13;0.75;;;;;;;;;;5040757;28;20041;-81
2021/12/28 13:16:58;;;;;;;0.10;0.10;;;;;;;;;;5041594;28;20049;-81
2021/12/28 13:19:24;;;;;;;0.00;0.00;;;;;;;;;;5038702;28;20033;-80
2021/12/28 13:22:00;;;;;;;0.10;0.10;;;;;;;;;;5039260;28;20125;-81
2021/12/28 13:24:27;;;;;;;0.10;0.10;;;;;;;;;;5040514;28;20036;-83
2021/12/28 13:26:59;;;;;;;0.35;0.35;;;;;;;;;;5029308;28;20068;-81
2021/12/28 13:29:25;;;;;;;0.52;0.38;;;;;;;;;;5025051;28;20029;-81
2021/12/28 13:31:52;;;;;;;0.30;0.30;;;;;;;;;;5029964;28;20451;-81
2021/12/28 13:34:18;;;;;;;0.60;0.60;;;;;;;;;;5039912;28;20041;-81
2021/12/28 13:36:50;;;;;;;0.30;0.30;;;;;;;;;;5024897;28;20040;-81
2021/12/28 13:39:17;;;;;;;0.40;0.40;;;;;;;;;;5038847;28;20144;-81
2021/12/28 13:41:52;;;;;;;0.43;0.43;;;;;;;;;;5042845;28;20114;-83
2021/12/28 13:44:20;;;;;;;0.22;0.22;;;;;;;;;;5026919;28;20280;-81
2021/12/28 13:46:46;;;;;;;0.30;0.30;;;;;;;;;;5037427;28;20032;-81
2021/12/28 13:49:14;;;;;;;0.10;0.10;;;;;;;;;;5039538;28;20033;-81
2021/12/28 13:51:41;;;;;;;0.20;0.20;;;;;;;;;;5038588;28;20397;-88
2021/12/28 13:54:07;;;;;;;0.30;0.30;;;;;;;;;;5039085;28;20647;-88
2021/12/28 13:56:42;;;;;;;0.30;0.30;;;;;;;;;;5028742;28;20160;-89
2021/12/28 13:59:10;;;;;;;0.50;0.50;;;;;;;;;;5025606;28;20506;-88
2021/12/28 14:01:39;;;;;;;0.70;0.70;;;;;;;;;;5044028;28;20048;-89
2021/12/28 14:04:08;;;;;;;8.18;0.73;;;;;;;;;;5040683;28;20407;-89
2021/12/28 14:06:39;;;;;;;0.28;0.28;;;;;;;;;;5039732;28;20025;-89
2021/12/28 14:09:06;;;;;;;0.20;0.20;;;;;;;;;;5031406;28;20814;-89
2021/12/28 14:11:32;;;;;;;6.90;6.50;;;;;;;;;;5027405;28;20569;-88
2021/12/28 14:13:59;;;;;;;1.30;1.30;;;;;;;;;;5028652;28;20755;-88
2021/12/28 14:16:25;;;;;;;0.87;0.87;;;;;;;;;;5030746;28;20075;-88
2021/12/28 14:18:53;;;;;;;12.27;11.35;;;;;;;;;;5032504;28;20114;-89
2021/12/28 14:21:22;;;;;;;0.10;0.10;;;;;;;;;;5032760;28;20029;-89
2021/12/28 14:23:53;;;;;;;0.20;0.20;;;;;;;;;;5028975;28;20033;-88
2021/12/28 14:26:20;;;;;;;0.10;0.10;;;;;;;;;;5027882;28;20595;-88
2021/12/28 14:28:58;;;;;;;0.10;0.10;;;;;;;;;;5031062;28;20851;-89
2021/12/28 14:31:25;;;;;;;0.20;0.20;;;;;;;;;;5032685;28;20036;-89
2021/12/28 14:33:53;;;;;;;0.43;0.43;;;;;;;;;;5036756;28;20037;-89
2021/12/28 14:36:19;;;;;;;0.30;0.30;;;;;;;;;;5043885;28;20028;-88
2021/12/28 14:38:46;;;;;;;0.40;0.40;;;;;;;;;;5044610;28;20144;-89
2021/12/28 14:41:26;;;;;;;1.02;1.02;;;;;;;;;;5029928;28;20106;-88
2021/12/28 14:44:05;;;;;;;0.28;0.28;;;;;;;;;;5036013;28;20055;-88
2021/12/28 14:46:31;;;;;;;0.00;0.00;;;;;;;;;;5043479;28;20238;-88
2021/12/28 14:48:57;;;;;;;0.20;0.20;;;;;;;;;;5043658;28;20029;-89